Terminal Aerodrome Forecast
Issued by NWS

Home | Current Version | Previous Version | Text Only | Print | Product List | Glossary On
Versions: 1 2 3 4 5 6 7 8 9 10 11 12 13 14 15 16 17 18 19 20 21 22 23 24 25 26 27 28 29 30 31 32 33 34 35 36 37
000
FTUS43 KDLH 211800 AAA
TAFHYR
TAF AMD
KHYR 211830Z 2119/2218 VRB06KT P6SM VCSH SCT015 BKN045
      TEMPO 2119/2121 BKN015
     FM212100 14005KT P6SM -SHRA VCTS SCT015CB OVC035
     FM220100 VRB03KT P6SM SCT050 BKN150
     FM220600 VRB02KT 1SM BR OVC006
     FM221500 VRB03KT 5SM BR OVC008=

USA.gov is the U.S. government's official web portal to all federal, state and local government web resources and services.